This is the latest recevied weather packets stored in our database for station/object SV1JSO-13. If no packets are shown the sender has not sent any weather packets the latest 10 day(s).
| Time | Temp. | Humidity | Pressure | Rain* | Wind** | Luminosity | Snow |
|---|---|---|---|---|---|---|---|
| 1788152700 | 82° F | 45% | 757.3 mmHg | 0 in | - | 87 W/m² | - |
| 1788152400 | 81° F | 44% | 757.2 mmHg | 0 in | - | 78 W/m² | - |
| 1788152100 | 80° F | 46% | 757.3 mmHg | 0 in | - | 70 W/m² | - |
| 1788151800 | 79° F | 53% | 757.3 mmHg | 0 in | - | 63 W/m² | - |
| 1788151500 | 78° F | 59% | 757.1 mmHg | 0 in | - | 56 W/m² | - |
| 1788151200 | 78° F | 63% | 757.2 mmHg | 0 in | - | 45 W/m² | - |
| 1788150900 | 78° F | 68% | 757.1 mmHg | 0 in | - | 40 W/m² | - |
| 1788150600 | 78° F | 69% | 757.1 mmHg | 0 in | - | 34 W/m² | - |
| 1788150300 | 78° F | 69% | 757 mmHg | 0 in | - | 30 W/m² | - |
| 1788150000 | 78° F | 69% | 757 mmHg | 0 in | - | 25 W/m² | - |
| 1788149700 | 78° F | 69% | 757.1 mmHg | 0 in | - | 20 W/m² | - |
| 1788149400 | 78° F | 69% | 757 mmHg | 0 in | - | 15 W/m² | - |
| 1788149100 | 78° F | 69% | 757 mmHg | 0 in | - | 11 W/m² | - |
| 1788148800 | 78° F | 70% | 757 mmHg | 0 in | - | 7 W/m² | - |
| 1788148500 | 78° F | 71% | 757.1 mmHg | 0 in | - | 4 W/m² | - |
| 1788148200 | 78° F | 71% | 757 mmHg | 0 in | - | 2 W/m² | - |
| 1788147900 | 78° F | 71% | 757 mmHg | 0 in | - | 1 W/m² | - |
| 1788147600 | 78° F | 71% | 757 mmHg | 0 in | - | 0 W/m² | - |
| 1788147300 | 78° F | 71% | 757 mmHg | 0 in | - | 0 W/m² | - |
| 1788147000 | 78° F | 72% | 757 mmHg | 0 in | - | 0 W/m² | - |
| 1788146700 | 78° F | 71% | 757 mmHg | 0 in | - | 0 W/m² | - |
| 1788146400 | 78° F | 71% | 757 mmHg | 0 in | - | 0 W/m² | - |
| 1788146100 | 78° F | 71% | 757 mmHg | 0 in | - | 0 W/m² | - |
| 1788145800 | 78° F | 71% | 757.1 mmHg | 0 in | - | 0 W/m² | - |
| 1788145500 | 78° F | 72% | 757 mmHg | 0 in | - | 0 W/m² | - |
* Rain latest hour (hover to see other rain measurements)
** Current wind speed in m/s (hover to see current wind gust speed)